Carnival Triumph — C6FN5 — position and weather

sailwx.info

Track history (hours):
 
Tides and Currents Weather Stations Pressure Air Temp Water Temp Dewpoint Dewpoint Depression Visibility Wind Speed Wind Dir Waves Ship Positions

Carnival Triumph

Operator: Carnival Cruise Lines

Last reported at 2017-Jun-22 16:28 UTC. Time now 2017-Jun-22 16:38 UTC.
Position N 20°29' W 086°59'.

Type: Ship. MMSI: 308045000.

Date/timePositionNaut miles runAvg speedWind from/ knotsBaromVisibWave heightAir tempDewpointWater temp
2017-Jun-22 16:28N 20°29' W 086°59'0 0.0
2017-Jun-22 15:55N 20°29' W 086°59'0 0.0
2017-Jun-22 15:28N 20°29' W 086°59'0 0.0
2017-Jun-22 15:00N 20°29' W 086°59'0 0.0
2017-Jun-22 14:30N 20°29' W 086°59'0 0.0
2017-Jun-22 13:30N 20°29' W 086°59'0 0.0
2017-Jun-22 13:00N 20°29' W 086°59'2 4.3
2017-Jun-22 12:30N 20°31' W 086°59'713.9
2017-Jun-22 12:00N 20°37' W 086°56'413 9.4
2017-Jun-20 16:00N 26°12' W 091°18'3411.4 030 / 451005.1 25.022.227.0
2017-Jun-20 13:00N 26°42' W 091°00'8416.7 030 / 381004.0
2017-Jun-20 08:00N 27°54' W 090°12'287 6.1 070 / 331009.110.8 27.025.728.0
2017-Jun-18 09:00N 23°54' W 087°18'20019.1 100 / 321009.110.8 28.026.728.0
2017-Jun-17 22:32N 20°35' W 086°57'120.0
2017-Jun-17 22:30N 20°34' W 086°57'611.5
2017-Jun-17 21:59N 20°29' W 086°59'0 0.0
2017-Jun-17 21:26N 20°29' W 086°59'0 0.0
2017-Jun-17 20:59N 20°29' W 086°59'0 0.0
2017-Jun-17 20:26N 20°29' W 086°59'0 0.0
2017-Jun-17 19:56N 20°29' W 086°59'0 0.0
2017-Jun-17 19:23N 20°29' W 086°59'0 0.0
2017-Jun-17 18:56N 20°29' W 086°59'0 0.0
2017-Jun-17 18:17N 20°29' W 086°59'0 0.0
2017-Jun-17 17:56N 20°29' W 086°59'0 0.0
2017-Jun-17 17:29N 20°29' W 086°59'0 0.0
2017-Jun-17 16:59N 20°29' W 086°59'0 0.0
2017-Jun-17 16:29N 20°29' W 086°59'0 0.0
2017-Jun-17 15:59N 20°29' W 086°59'0 0.0
2017-Jun-17 15:26N 20°29' W 086°59'0 0.0
2017-Jun-17 14:59N 20°29' W 086°59'0 0.0
2017-Jun-17 13:56N 20°29' W 086°59'0 0.0
2017-Jun-17 13:17N 20°29' W 086°59'0 0.0
2017-Jun-17 12:59N 20°29' W 086°59'0 0.0
2017-Jun-17 12:26N 20°29' W 086°59'0 0.0
2017-Jun-17 12:00N 20°29' W 086°59'1 3.0
2017-Jun-17 11:31N 20°30' W 086°59'713.4
2017-Jun-17 10:59N 20°36' W 086°56'9613.7
2017-Jun-17 04:00N 22°12' W 087°00'   120 / 251013.110.8 28.025.328.0
2017-Jun-14 14:00N 25°30' W 089°18'18616.9 090 / 181018.110.8 27.024.327.0
2017-Jun-14 03:00N 22°24' W 089°18'138 6.0 100 / 361012.110.8 28.026.727.0
2017-Jun-13 04:00N 21°48' W 086°54'7515.0 080 / 221014.110.8 28.026.728.0
2017-Jun-12 23:00N 20°33' W 086°58'5 9.1
2017-Jun-12 22:29N 20°29' W 086°59'0 0.0
2017-Jun-12 21:53N 20°29' W 086°59'0 0.0
2017-Jun-12 21:26N 20°29' W 086°59'0 0.0
2017-Jun-12 20:59N 20°29' W 086°59'0 0.0
2017-Jun-12 20:29N 20°29' W 086°59'0 0.0
2017-Jun-12 19:59N 20°29' W 086°59'0 0.0
2017-Jun-12 19:23N 20°29' W 086°59'0 0.0
2017-Jun-12 18:56N 20°29' W 086°59'0 0.0
2017-Jun-12 18:29N 20°29' W 086°59'0 0.0
2017-Jun-12 17:59N 20°29' W 086°59'0 0.0
2017-Jun-12 17:29N 20°29' W 086°59'0 0.0
2017-Jun-12 16:50N 20°29' W 086°59'  
Track history (hours):
 
Tides and Currents Weather Stations Pressure Air Temp Water Temp Dewpoint Dewpoint Depression Visibility Wind Speed Wind Dir Waves Ship Positions

Carnival Triumph

Operator: Carnival Cruise Lines

Last reported at 2017-Jun-22 16:28 UTC. Time now 2017-Jun-22 16:38 UTC.
Position N 20°29' W 086°59'.

Type: Ship. MMSI: 308045000.

Date/timePositionNaut miles runAvg speedWind from/ knotsBaromVisibWave heightAir tempDewpointWater temp
2017-Jun-22 16:28N 20°29' W 086°59'0 0.0
2017-Jun-22 15:55N 20°29' W 086°59'0 0.0
2017-Jun-22 15:28N 20°29' W 086°59'0 0.0
2017-Jun-22 15:00N 20°29' W 086°59'0 0.0
2017-Jun-22 14:30N 20°29' W 086°59'0 0.0
2017-Jun-22 13:30N 20°29' W 086°59'0 0.0
2017-Jun-22 13:00N 20°29' W 086°59'2 4.3
2017-Jun-22 12:30N 20°31' W 086°59'713.9
2017-Jun-22 12:00N 20°37' W 086°56'413 9.4
2017-Jun-20 16:00N 26°12' W 091°18'3411.4 030 / 451005.1 25.022.227.0
2017-Jun-20 13:00N 26°42' W 091°00'8416.7 030 / 381004.0
2017-Jun-20 08:00N 27°54' W 090°12'287 6.1 070 / 331009.110.8 27.025.728.0
2017-Jun-18 09:00N 23°54' W 087°18'20019.1 100 / 321009.110.8 28.026.728.0
2017-Jun-17 22:32N 20°35' W 086°57'120.0
2017-Jun-17 22:30N 20°34' W 086°57'611.5
2017-Jun-17 21:59N 20°29' W 086°59'0 0.0
2017-Jun-17 21:26N 20°29' W 086°59'0 0.0
2017-Jun-17 20:59N 20°29' W 086°59'0 0.0
2017-Jun-17 20:26N 20°29' W 086°59'0 0.0
2017-Jun-17 19:56N 20°29' W 086°59'0 0.0
2017-Jun-17 19:23N 20°29' W 086°59'0 0.0
2017-Jun-17 18:56N 20°29' W 086°59'0 0.0
2017-Jun-17 18:17N 20°29' W 086°59'0 0.0
2017-Jun-17 17:56N 20°29' W 086°59'0 0.0
2017-Jun-17 17:29N 20°29' W 086°59'0 0.0
2017-Jun-17 16:59N 20°29' W 086°59'0 0.0
2017-Jun-17 16:29N 20°29' W 086°59'0 0.0
2017-Jun-17 15:59N 20°29' W 086°59'0 0.0
2017-Jun-17 15:26N 20°29' W 086°59'0 0.0
2017-Jun-17 14:59N 20°29' W 086°59'0 0.0
2017-Jun-17 13:56N 20°29' W 086°59'0 0.0
2017-Jun-17 13:17N 20°29' W 086°59'0 0.0
2017-Jun-17 12:59N 20°29' W 086°59'0 0.0
2017-Jun-17 12:26N 20°29' W 086°59'0 0.0
2017-Jun-17 12:00N 20°29' W 086°59'1 3.0
2017-Jun-17 11:31N 20°30' W 086°59'713.4
2017-Jun-17 10:59N 20°36' W 086°56'9613.7
2017-Jun-17 04:00N 22°12' W 087°00'   120 / 251013.110.8 28.025.328.0
2017-Jun-14 14:00N 25°30' W 089°18'18616.9 090 / 181018.110.8 27.024.327.0
2017-Jun-14 03:00N 22°24' W 089°18'138 6.0 100 / 361012.110.8 28.026.727.0
2017-Jun-13 04:00N 21°48' W 086°54'7515.0 080 / 221014.110.8 28.026.728.0
2017-Jun-12 23:00N 20°33' W 086°58'5 9.1
2017-Jun-12 22:29N 20°29' W 086°59'0 0.0
2017-Jun-12 21:53N 20°29' W 086°59'0 0.0
2017-Jun-12 21:26N 20°29' W 086°59'0 0.0
2017-Jun-12 20:59N 20°29' W 086°59'0 0.0
2017-Jun-12 20:29N 20°29' W 086°59'0 0.0
2017-Jun-12 19:59N 20°29' W 086°59'0 0.0
2017-Jun-12 19:23N 20°29' W 086°59'0 0.0
2017-Jun-12 18:56N 20°29' W 086°59'0 0.0
2017-Jun-12 18:29N 20°29' W 086°59'0 0.0
2017-Jun-12 17:59N 20°29' W 086°59'0 0.0
2017-Jun-12 17:29N 20°29' W 086°59'0 0.0
2017-Jun-12 16:50N 20°29' W 086°59'  

Dump ship's entire track history